createdAt,value
2022-10-15T00:02:12.644Z,10.13
2022-10-15T00:04:33.047Z,11.82
2022-10-15T00:06:53.374Z,10.57
2022-10-15T00:09:13.748Z,10.02
2022-10-15T00:11:34.492Z,10.00
2022-10-15T00:13:57.014Z,10.48
2022-10-15T00:16:21.119Z,10.93
2022-10-15T00:18:42.431Z,11.05
2022-10-15T00:21:07.076Z,9.75
2022-10-15T00:23:27.444Z,10.60
2022-10-15T00:25:47.954Z,11.75
2022-10-15T00:28:08.552Z,11.20
2022-10-15T00:30:29.010Z,11.93
2022-10-15T00:32:49.544Z,13.05
2022-10-15T00:35:10.085Z,12.43
2022-10-15T00:37:30.315Z,11.65
2022-10-15T00:39:50.943Z,11.10
2022-10-15T00:42:11.880Z,10.57
2022-10-15T00:44:32.352Z,9.85
2022-10-15T00:47:19.204Z,9.98
2022-10-15T00:49:43.538Z,10.55
2022-10-15T00:52:10.762Z,10.65
2022-10-15T00:54:36.634Z,10.18
2022-10-15T00:56:57.222Z,10.55
2022-10-15T00:59:19.919Z,11.73
2022-10-15T01:01:40.739Z,12.07
2022-10-15T01:04:02.659Z,12.38
2022-10-15T01:06:24.671Z,10.13
2022-10-15T01:08:45.580Z,9.95
2022-10-15T01:11:11.656Z,9.73
2022-10-15T01:14:15.736Z,9.98
2022-10-15T01:16:50.188Z,10.75
2022-10-15T01:19:33.054Z,11.77
2022-10-15T01:22:10.254Z,12.13
2022-10-15T01:24:45.558Z,10.45
2022-10-15T01:27:28.994Z,13.30
2022-10-15T01:30:18.473Z,45.60
2022-10-15T01:33:15.394Z,113.35
2022-10-15T01:35:50.220Z,14.18
2022-10-15T01:38:16.627Z,13.15
2022-10-15T01:40:46.448Z,12.40
2022-10-15T01:43:15.914Z,47.60
2022-10-15T01:45:46.124Z,14.20
2022-10-15T01:48:11.097Z,17.15
2022-10-15T01:50:34.888Z,17.75
2022-10-15T01:52:57.064Z,27.67
2022-10-15T01:55:21.474Z,70.83
2022-10-15T01:57:44.728Z,49.17
2022-10-15T02:00:05.684Z,14.07
2022-10-15T02:02:26.434Z,13.40
2022-10-15T02:04:47.183Z,13.07
2022-10-15T02:07:13.798Z,14.23
2022-10-15T02:10:00.785Z,25.10
2022-10-15T02:12:39.428Z,15.20
2022-10-15T02:15:26.270Z,15.35
2022-10-15T02:18:15.046Z,13.18
2022-10-15T02:20:52.255Z,13.27
2022-10-15T02:23:26.814Z,13.07
2022-10-15T02:25:50.450Z,13.05
2022-10-15T02:28:13.107Z,12.43
2022-10-15T02:30:34.855Z,13.75
2022-10-15T02:32:59.099Z,14.02
2022-10-15T02:35:20.396Z,13.07
2022-10-15T02:37:49.741Z,22.58
2022-10-15T02:40:10.771Z,14.23
2022-10-15T02:42:31.361Z,14.15
2022-10-15T02:44:52.850Z,34.00
2022-10-15T02:47:13.546Z,30.77
2022-10-15T02:49:34.223Z,29.50
2022-10-15T02:51:54.721Z,24.45
2022-10-15T02:54:15.366Z,12.85
2022-10-15T02:56:35.967Z,42.55
2022-10-15T02:58:56.579Z,20.60
2022-10-15T03:01:16.960Z,78.95
2022-10-15T03:03:37.746Z,13.27
2022-10-15T03:05:58.330Z,27.75
2022-10-15T03:08:18.782Z,78.75
2022-10-15T03:10:38.987Z,25.00
2022-10-15T03:13:04.560Z,137.10
2022-10-15T03:15:25.150Z,145.00
2022-10-15T03:17:45.745Z,109.57
2022-10-15T03:20:06.672Z,55.38
2022-10-15T03:22:27.298Z,6.65
2022-10-15T03:24:47.867Z,7.78
2022-10-15T03:27:08.732Z,8.05
2022-10-15T03:29:29.065Z,9.63
2022-10-15T03:31:49.816Z,12.48
2022-10-15T03:34:10.431Z,12.30
2022-10-15T03:36:31.201Z,14.63
2022-10-15T03:38:51.741Z,11.70
2022-10-15T03:41:12.300Z,27.10
2022-10-15T03:43:32.902Z,275.50
2022-10-15T03:45:53.684Z,9.00
2022-10-15T03:48:14.263Z,9.63
2022-10-15T03:50:35.248Z,113.38
2022-10-15T03:52:55.780Z,135.50
2022-10-15T03:55:16.551Z,214.77
2022-10-15T03:57:39.025Z,94.47
2022-10-15T03:59:59.565Z,161.45
2022-10-15T04:02:20.164Z,73.53
2022-10-15T04:04:43.427Z,38.85
2022-10-15T04:09:24.497Z,30.92
2022-10-15T04:11:44.933Z,56.80
2022-10-15T04:14:06.431Z,30.90
2022-10-15T04:16:26.776Z,9.60
2022-10-15T04:18:47.329Z,62.83
2022-10-15T04:21:07.777Z,26.20
2022-10-15T04:23:28.580Z,8.85
2022-10-15T04:25:49.105Z,9.27
2022-10-15T04:28:09.822Z,36.25
2022-10-15T04:30:30.594Z,18.17
2022-10-15T04:32:54.502Z,36.78
2022-10-15T04:35:14.874Z,61.05
2022-10-15T04:37:35.760Z,32.95
2022-10-15T04:39:56.377Z,64.97
2022-10-15T04:42:16.916Z,70.35
2022-10-15T04:44:37.636Z,48.58
2022-10-15T04:46:58.402Z,67.82
2022-10-15T04:49:19.077Z,5.90
2022-10-15T04:51:39.781Z,6.25
2022-10-15T04:54:01.798Z,9.75
2022-10-15T04:56:22.969Z,30.85
2022-10-15T04:58:44.543Z,28.35
2022-10-15T05:01:14.031Z,21.15
2022-10-15T05:03:38.485Z,7.75
2022-10-15T05:06:03.533Z,12.50
2022-10-15T05:08:24.103Z,26.73
2022-10-15T05:10:44.613Z,21.23
2022-10-15T05:13:05.261Z,7.57
2022-10-15T05:15:27.400Z,7.68
2022-10-15T05:17:47.892Z,7.70
2022-10-15T05:20:08.911Z,13.90
2022-10-15T05:22:29.344Z,55.13
2022-10-15T05:24:50.105Z,80.55
2022-10-15T05:27:10.641Z,115.95
2022-10-15T05:29:31.532Z,76.05
2022-10-15T05:31:52.721Z,173.70
2022-10-15T05:34:13.376Z,91.68
2022-10-15T05:36:33.910Z,79.20
2022-10-15T05:38:57.477Z,256.10
2022-10-15T05:41:18.104Z,177.43
2022-10-15T05:43:41.304Z,192.55
2022-10-15T05:46:02.057Z,66.68
2022-10-15T05:48:23.563Z,70.03
2022-10-15T05:50:44.146Z,41.30
2022-10-15T05:53:04.996Z,106.70
2022-10-15T05:55:25.334Z,76.13
2022-10-15T05:57:45.955Z,70.25
2022-10-15T06:00:07.488Z,65.30
2022-10-15T06:02:28.559Z,100.57
2022-10-15T06:04:49.586Z,10.80
2022-10-15T06:07:10.412Z,55.33
2022-10-15T06:09:30.940Z,42.13
2022-10-15T06:11:51.514Z,43.60
2022-10-15T06:14:12.009Z,45.08
2022-10-15T06:16:33.402Z,79.05
2022-10-15T06:18:54.290Z,54.50
2022-10-15T06:21:14.818Z,18.02
2022-10-15T06:23:35.723Z,11.05
2022-10-15T06:25:56.630Z,10.38
2022-10-15T06:28:17.296Z,11.30
2022-10-15T06:30:38.022Z,9.25
2022-10-15T06:32:59.376Z,15.50
2022-10-15T06:35:21.836Z,11.23
2022-10-15T06:37:42.237Z,56.92
2022-10-15T06:40:02.626Z,48.42
2022-10-15T06:42:23.246Z,81.50
2022-10-15T06:44:43.440Z,87.68
2022-10-15T06:47:03.973Z,107.43
2022-10-15T06:49:24.495Z,88.35
2022-10-15T06:51:44.886Z,86.15
2022-10-15T06:54:05.289Z,113.80
2022-10-15T06:56:25.799Z,93.65
2022-10-15T06:58:46.140Z,85.72
2022-10-15T07:01:07.714Z,49.60
2022-10-15T07:03:28.189Z,31.23
2022-10-15T07:05:48.647Z,89.72
2022-10-15T07:08:09.177Z,119.45
2022-10-15T07:10:29.831Z,54.15
2022-10-15T07:12:50.467Z,58.35
2022-10-15T07:15:10.886Z,77.70
2022-10-15T07:17:31.646Z,33.85
2022-10-15T07:19:52.154Z,8.57
2022-10-15T07:22:12.378Z,8.07
2022-10-15T07:24:32.761Z,7.63
2022-10-15T07:26:53.302Z,7.78
2022-10-15T07:29:13.937Z,7.10
2022-10-15T07:31:34.698Z,6.35
2022-10-15T07:33:55.483Z,6.80
2022-10-15T07:36:16.039Z,7.00
2022-10-15T07:38:36.625Z,6.82
2022-10-15T07:41:01.398Z,7.75
2022-10-15T07:43:21.723Z,7.20
2022-10-15T07:45:47.247Z,6.95
2022-10-15T07:48:07.677Z,7.13
2022-10-15T07:50:32.237Z,10.25
2022-10-15T07:52:55.953Z,6.75
2022-10-15T07:55:16.747Z,7.20
2022-10-15T07:57:37.202Z,7.03
2022-10-15T07:59:57.575Z,7.47
2022-10-15T08:02:19.138Z,7.45
2022-10-15T08:04:39.358Z,6.85
2022-10-15T08:06:59.751Z,6.18
2022-10-15T08:09:20.335Z,5.88
2022-10-15T08:11:40.786Z,5.85
2022-10-15T08:14:01.263Z,4.85
2022-10-15T08:16:21.630Z,4.68
2022-10-15T08:18:42.572Z,5.40
2022-10-15T08:21:03.186Z,4.63
2022-10-15T08:23:23.330Z,4.78
2022-10-15T08:25:44.250Z,4.20
2022-10-15T08:28:04.813Z,4.88
2022-10-15T08:30:25.976Z,4.78
2022-10-15T08:32:46.563Z,3.88
2022-10-15T08:35:07.213Z,5.00
2022-10-15T08:37:27.753Z,3.47
2022-10-15T08:39:48.511Z,4.57
2022-10-15T08:42:23.267Z,3.58
2022-10-15T08:44:58.585Z,2.83
2022-10-15T08:48:03.946Z,2.80
2022-10-15T08:50:39.896Z,4.65
2022-10-15T08:53:00.515Z,3.20
2022-10-15T08:55:25.709Z,3.85
2022-10-15T08:57:52.485Z,4.53
2022-10-15T09:00:20.995Z,3.20
2022-10-15T09:02:48.574Z,3.85
2022-10-15T09:05:49.943Z,3.78
2022-10-15T09:08:33.365Z,2.92
2022-10-15T09:10:59.765Z,2.85
2022-10-15T09:16:12.667Z,2.20
2022-10-15T09:18:38.090Z,3.83
2022-10-15T09:20:59.964Z,2.58
2022-10-15T09:23:23.303Z,2.20
2022-10-15T09:25:49.709Z,3.10
2022-10-15T09:28:14.684Z,2.67
2022-10-15T09:30:52.950Z,2.38
2022-10-15T09:33:35.375Z,3.10
2022-10-15T09:36:19.475Z,2.75
2022-10-15T09:38:54.366Z,4.63
2022-10-15T09:41:29.824Z,2.58
2022-10-15T09:43:52.700Z,2.42
2022-10-15T09:46:13.235Z,4.22
2022-10-15T09:48:43.970Z,3.92
2022-10-15T09:51:24.976Z,2.80
2022-10-15T09:54:11.549Z,5.70
2022-10-15T09:56:39.516Z,3.75
2022-10-15T09:59:00.279Z,2.83
2022-10-15T10:01:32.646Z,4.70
2022-10-15T10:04:14.270Z,2.55
2022-10-15T10:06:53.954Z,2.03
2022-10-15T10:09:27.286Z,1.58
2022-10-15T10:11:59.823Z,2.35
2022-10-15T10:14:33.865Z,3.27
2022-10-15T10:17:08.308Z,2.13
2022-10-15T10:19:28.896Z,3.72
2022-10-15T10:21:49.159Z,5.30
2022-10-15T10:24:31.956Z,4.90
2022-10-15T10:26:52.799Z,1.67
2022-10-15T10:29:32.901Z,1.65
2022-10-15T10:31:54.686Z,3.30
2022-10-15T10:34:18.167Z,2.72
2022-10-15T10:36:42.013Z,3.22
2022-10-15T10:39:13.247Z,5.60
2022-10-15T10:41:50.306Z,1.90
2022-10-15T10:44:26.368Z,2.35
2022-10-15T10:47:03.110Z,1.30
2022-10-15T10:49:38.919Z,1.90
2022-10-15T10:51:59.594Z,1.58
2022-10-15T10:54:20.215Z,2.17
2022-10-15T10:56:44.652Z,2.70
2022-10-15T10:59:25.797Z,1.42
2022-10-15T11:01:47.078Z,3.05
2022-10-15T11:04:20.811Z,2.00
2022-10-15T11:07:08.746Z,3.78
2022-10-15T11:10:02.240Z,2.85
2022-10-15T11:15:05.135Z,2.97
2022-10-15T11:17:46.753Z,1.92
2022-10-15T11:20:37.631Z,1.75
2022-10-15T11:23:44.899Z,1.40
2022-10-15T11:26:11.229Z,4.15
2022-10-15T11:28:32.072Z,2.33
2022-10-15T11:31:29.892Z,3.13
2022-10-15T11:34:17.929Z,1.48
2022-10-15T11:36:48.234Z,1.25
2022-10-15T11:39:27.351Z,3.85
2022-10-15T11:41:59.720Z,3.30
2022-10-15T11:44:34.873Z,2.88
2022-10-15T11:47:36.462Z,2.15
2022-10-15T11:50:32.829Z,2.05
2022-10-15T11:53:20.929Z,4.82
2022-10-15T11:56:08.750Z,2.78
2022-10-15T11:58:31.633Z,2.03
2022-10-15T12:00:58.852Z,3.22
2022-10-15T12:03:24.907Z,5.05
2022-10-15T12:05:53.012Z,3.25
2022-10-15T12:08:14.826Z,3.33
2022-10-15T12:11:10.621Z,1.77
2022-10-15T12:13:59.670Z,3.83
2022-10-15T12:16:54.130Z,4.30
2022-10-15T12:19:33.920Z,3.10
2022-10-15T12:21:57.052Z,2.53
2022-10-15T12:24:44.704Z,4.18
2022-10-15T12:27:35.566Z,2.78
2022-10-15T12:30:07.855Z,2.03
2022-10-15T12:32:43.588Z,4.40
2022-10-15T12:35:08.030Z,3.20
2022-10-15T12:37:30.714Z,4.82
2022-10-15T12:42:39.577Z,5.10
2022-10-15T12:45:03.472Z,3.42
2022-10-15T12:47:50.247Z,3.17
2022-10-15T12:50:19.136Z,3.03
2022-10-15T12:53:03.470Z,2.47
2022-10-15T12:55:28.497Z,7.57
2022-10-15T12:57:48.727Z,4.10
2022-10-15T13:00:31.804Z,3.33
2022-10-15T13:02:54.534Z,3.60
2022-10-15T13:05:33.687Z,4.57
2022-10-15T13:07:57.405Z,3.22
2022-10-15T13:10:29.786Z,3.38
2022-10-15T13:12:58.748Z,26.90
2022-10-15T13:15:28.027Z,2.30
2022-10-15T13:17:48.444Z,3.75
2022-10-15T13:20:33.420Z,6.32
2022-10-15T13:23:18.492Z,5.28
2022-10-15T13:25:49.473Z,4.88
2022-10-15T13:28:41.836Z,1.95
2022-10-15T13:31:30.399Z,1.98
2022-10-15T13:33:54.091Z,1.80
2022-10-15T13:36:21.571Z,1.35
2022-10-15T13:38:47.153Z,2.63
2022-10-15T13:41:08.433Z,1.95
2022-10-15T13:43:28.929Z,2.75
2022-10-15T13:46:00.577Z,1.60
2022-10-15T13:48:24.188Z,2.60
2022-10-15T13:50:48.726Z,3.28
2022-10-15T13:53:42.355Z,4.47
2022-10-15T13:58:29.352Z,3.38
2022-10-15T14:01:14.237Z,1.63
2022-10-15T14:03:36.785Z,3.83
2022-10-15T14:06:22.620Z,1.20
2022-10-15T14:08:43.197Z,1.70
2022-10-15T14:11:03.738Z,1.85
2022-10-15T14:13:25.237Z,1.88
2022-10-15T14:16:11.647Z,1.70
2022-10-15T14:18:37.774Z,2.72
2022-10-15T14:20:58.612Z,2.65
2022-10-15T14:23:24.665Z,2.45
2022-10-15T14:29:48.269Z,1.95
2022-10-15T14:32:21.049Z,4.80
2022-10-15T14:34:41.923Z,3.00
2022-10-15T14:37:32.822Z,3.25
2022-10-15T14:40:11.852Z,2.65
2022-10-15T14:42:33.043Z,1.70
2022-10-15T14:44:53.860Z,3.97
2022-10-15T14:47:20.761Z,5.60
2022-10-15T14:49:41.413Z,3.05
2022-10-15T14:52:08.547Z,3.25
2022-10-15T14:54:36.122Z,4.75
2022-10-15T14:56:57.381Z,1.83
2022-10-15T14:59:20.440Z,3.00
2022-10-15T15:01:41.148Z,1.70
2022-10-15T15:04:01.462Z,4.10
2022-10-15T15:06:22.172Z,2.15
2022-10-15T15:08:42.822Z,10.05
2022-10-15T15:11:05.718Z,2.10
2022-10-15T15:13:28.787Z,2.30
2022-10-15T15:15:49.301Z,3.35
2022-10-15T15:18:11.171Z,1.70
2022-10-15T15:20:31.904Z,2.87
2022-10-15T15:22:54.488Z,4.72
2022-10-15T15:25:21.115Z,1.63
2022-10-15T15:27:41.550Z,3.15
2022-10-15T15:30:02.151Z,1.60
2022-10-15T15:32:24.449Z,6.53
2022-10-15T15:37:19.841Z,2.25
2022-10-15T15:39:41.016Z,2.60
2022-10-15T15:42:01.733Z,1.90
2022-10-15T15:44:22.312Z,2.53
2022-10-15T15:46:43.213Z,2.20
2022-10-15T15:49:03.734Z,3.67
2022-10-15T15:51:30.744Z,2.67
2022-10-15T15:53:51.515Z,2.00
2022-10-15T15:56:12.075Z,2.35
2022-10-15T15:58:32.671Z,1.60
2022-10-15T16:00:53.216Z,3.55
2022-10-15T16:03:14.974Z,2.88
2022-10-15T16:05:35.383Z,3.67
2022-10-15T16:07:56.066Z,3.35
2022-10-15T16:10:16.825Z,3.10
2022-10-15T16:12:37.643Z,2.60
2022-10-15T16:17:24.784Z,2.00
2022-10-15T16:19:45.853Z,5.13
2022-10-15T16:22:06.717Z,2.58
2022-10-15T16:24:27.494Z,3.70
2022-10-15T16:26:48.274Z,2.88
2022-10-15T16:29:08.811Z,4.05
2022-10-15T16:31:29.526Z,4.72
2022-10-15T16:33:51.082Z,6.28
2022-10-15T16:36:11.677Z,4.40
2022-10-15T16:38:32.432Z,4.07
2022-10-15T16:40:53.254Z,6.22
2022-10-15T16:43:13.852Z,9.63
2022-10-15T16:45:34.623Z,4.28
2022-10-15T16:47:55.019Z,3.58
2022-10-15T16:50:15.890Z,3.60
2022-10-15T16:52:36.679Z,6.38
2022-10-15T16:54:59.529Z,3.60
2022-10-15T16:57:20.036Z,10.63
2022-10-15T16:59:40.660Z,6.82
2022-10-15T17:02:01.502Z,11.85
2022-10-15T17:04:22.234Z,9.40
2022-10-15T17:06:42.799Z,6.45
2022-10-15T17:09:04.588Z,6.50
2022-10-15T17:11:26.445Z,4.10
2022-10-15T17:13:48.733Z,5.55
2022-10-15T17:16:15.729Z,3.50
2022-10-15T17:18:36.425Z,3.00
2022-10-15T17:20:57.083Z,3.05
2022-10-15T17:23:17.859Z,7.03
2022-10-15T17:25:38.128Z,4.18
2022-10-15T17:27:58.895Z,3.35
2022-10-15T17:30:19.384Z,3.25
2022-10-15T17:32:40.927Z,3.72
2022-10-15T17:35:04.093Z,5.78
2022-10-15T17:37:25.411Z,6.45
2022-10-15T17:39:45.990Z,3.55
2022-10-15T17:42:06.655Z,7.57
2022-10-15T17:44:26.997Z,7.20
2022-10-15T17:49:18.464Z,4.50
2022-10-15T17:51:38.829Z,4.45
2022-10-15T17:54:00.511Z,9.88
2022-10-15T17:56:26.363Z,10.73
2022-10-15T17:58:47.440Z,9.98
2022-10-15T18:01:28.123Z,11.50
2022-10-15T18:03:54.935Z,7.65
2022-10-15T18:06:17.769Z,8.70
2022-10-15T18:08:38.504Z,9.40
2022-10-15T18:10:58.803Z,11.55
2022-10-15T18:13:19.883Z,11.85
2022-10-15T18:15:48.869Z,11.93
2022-10-15T18:18:09.568Z,12.18
2022-10-15T18:20:31.113Z,8.35
2022-10-15T18:22:52.787Z,10.68
2022-10-15T18:25:13.340Z,8.82
2022-10-15T18:27:34.570Z,10.90
2022-10-15T18:29:55.086Z,18.85
2022-10-15T18:32:16.580Z,14.15
2022-10-15T18:34:37.139Z,13.00
2022-10-15T18:36:57.883Z,9.45
2022-10-15T18:39:18.653Z,9.77
2022-10-15T18:41:40.909Z,8.80
2022-10-15T18:44:04.473Z,9.38
2022-10-15T18:46:27.400Z,7.90
2022-10-15T18:48:48.970Z,6.75
2022-10-15T18:51:11.216Z,9.30
2022-10-15T18:53:34.371Z,5.70
2022-10-15T18:58:14.922Z,4.05
2022-10-15T19:00:36.734Z,4.63
2022-10-15T19:02:57.431Z,3.65
2022-10-15T19:05:17.759Z,7.65
2022-10-15T19:07:38.988Z,7.38
2022-10-15T19:09:59.527Z,5.82
2022-10-15T19:12:21.478Z,8.98
2022-10-15T19:14:44.543Z,8.70
2022-10-15T19:17:05.143Z,6.32
2022-10-15T19:19:26.816Z,5.28
2022-10-15T19:21:49.042Z,4.88
2022-10-15T19:24:09.386Z,7.03
2022-10-15T19:26:30.067Z,12.57
2022-10-15T19:28:51.859Z,6.47
2022-10-15T19:31:20.974Z,6.15
2022-10-15T19:33:42.396Z,7.32
2022-10-15T19:36:02.792Z,11.77
2022-10-15T19:38:24.655Z,14.73
2022-10-15T19:40:48.691Z,18.90
2022-10-15T19:43:10.390Z,21.90
2022-10-15T19:45:30.807Z,14.35
2022-10-15T19:47:51.334Z,5.47
2022-10-15T19:50:12.096Z,4.18
2022-10-15T19:52:32.915Z,6.35
2022-10-15T19:54:53.426Z,2.50
2022-10-15T19:57:14.801Z,5.50
2022-10-15T19:59:36.423Z,6.78
2022-10-15T20:01:57.145Z,8.23
2022-10-15T20:04:17.634Z,10.20
2022-10-15T20:06:38.978Z,5.85
2022-10-15T20:08:59.590Z,5.93
2022-10-15T20:11:20.186Z,6.22
2022-10-15T20:13:40.663Z,8.73
2022-10-15T20:16:07.726Z,7.03
2022-10-15T20:18:28.382Z,6.40
2022-10-15T20:20:49.322Z,5.63
2022-10-15T20:23:09.954Z,6.05
2022-10-15T20:25:30.679Z,5.10
2022-10-15T20:27:51.154Z,5.78
2022-10-15T20:30:12.154Z,5.40
2022-10-15T20:32:35.811Z,6.97
2022-10-15T20:34:56.763Z,5.80
2022-10-15T20:37:18.776Z,5.50
2022-10-15T20:39:39.279Z,5.13
2022-10-15T20:41:59.882Z,6.10
2022-10-15T20:44:21.564Z,6.72
2022-10-15T20:46:47.018Z,6.65
2022-10-15T20:51:32.729Z,8.52
2022-10-15T20:53:53.466Z,8.02
2022-10-15T20:56:13.953Z,8.30
2022-10-15T20:58:34.463Z,9.07
2022-10-15T21:00:55.015Z,7.88
2022-10-15T21:03:15.764Z,11.68
2022-10-15T21:05:36.447Z,7.82
2022-10-15T21:08:00.584Z,11.52
2022-10-15T21:10:20.890Z,10.73
2022-10-15T21:12:41.606Z,15.70
2022-10-15T21:15:02.183Z,13.77
2022-10-15T21:17:23.386Z,9.68
2022-10-15T21:19:44.882Z,7.07
2022-10-15T21:22:06.834Z,6.72
2022-10-15T21:24:29.982Z,3.78
2022-10-15T21:29:15.573Z,8.65
2022-10-15T21:31:37.239Z,15.48
2022-10-15T21:33:57.990Z,13.18
2022-10-15T21:36:26.395Z,8.75
2022-10-15T21:38:47.599Z,8.70
2022-10-15T21:41:08.861Z,6.55
2022-10-15T21:43:29.411Z,7.40
2022-10-15T21:45:49.834Z,6.88
2022-10-15T21:48:10.436Z,7.57
2022-10-15T21:50:31.054Z,5.95
2022-10-15T21:52:52.010Z,6.57
2022-10-15T21:55:12.478Z,5.38
2022-10-15T21:57:33.674Z,5.82
2022-10-15T21:59:54.115Z,5.40
2022-10-15T22:02:14.511Z,5.00
2022-10-15T22:04:35.690Z,4.13
2022-10-15T22:06:56.026Z,4.30
2022-10-15T22:09:16.539Z,4.97
2022-10-15T22:11:40.229Z,6.93
2022-10-15T22:14:03.828Z,6.07
2022-10-15T22:16:26.692Z,5.78
2022-10-15T22:18:48.052Z,6.32
2022-10-15T22:21:20.796Z,5.70
2022-10-15T22:24:10.358Z,5.47
2022-10-15T22:26:39.462Z,5.13
2022-10-15T22:29:02.259Z,6.45
2022-10-15T22:31:23.951Z,6.63
2022-10-15T22:33:46.572Z,6.93
2022-10-15T22:36:13.428Z,7.88
2022-10-15T22:38:33.986Z,6.72
2022-10-15T22:40:55.451Z,6.22
2022-10-15T22:43:16.148Z,6.55
2022-10-15T22:45:36.776Z,6.25
2022-10-15T22:47:57.091Z,7.45
2022-10-15T22:50:17.666Z,6.75
2022-10-15T22:52:38.344Z,6.93
2022-10-15T22:54:58.715Z,6.13
2022-10-15T22:57:20.394Z,6.75
2022-10-15T22:59:43.638Z,6.47
2022-10-15T23:02:04.239Z,5.78
2022-10-15T23:04:25.013Z,6.70
2022-10-15T23:06:45.585Z,7.30
2022-10-15T23:09:07.894Z,8.15
2022-10-15T23:11:34.087Z,7.13
2022-10-15T23:14:03.079Z,7.22
2022-10-15T23:16:35.866Z,6.30
2022-10-15T23:19:02.566Z,6.85
2022-10-15T23:21:40.721Z,6.95
2022-10-15T23:24:02.188Z,8.93
2022-10-15T23:26:22.860Z,11.20
2022-10-15T23:28:45.163Z,12.48
2022-10-15T23:31:05.687Z,11.77
2022-10-15T23:33:26.167Z,8.93
2022-10-15T23:35:55.690Z,11.45
2022-10-15T23:38:16.394Z,8.82
2022-10-15T23:40:36.919Z,9.70
2022-10-15T23:42:57.676Z,7.40
2022-10-15T23:45:18.247Z,7.85
2022-10-15T23:47:39.034Z,7.70
2022-10-15T23:49:59.306Z,9.10
2022-10-15T23:52:20.069Z,8.13
2022-10-15T23:54:40.682Z,6.32
2022-10-15T23:57:01.486Z,6.05
2022-10-15T23:59:22.241Z,5.50
